Meteo Giornale » Osservazioni meteo Italia » Catania-Fontanarossa

ore: 04:50 - Osservazioni Meteo Catania-Fontanarossa
Lat. 37° 28' N Lon. 15° 3' E Alt. 11 metri s.l.m.

sereno Europe/Rome

21 °C

Sereno

Temp. 24 Ore

20 °C

30 °C

Ovest

11.1 Km/h

Dew point 16 °C

Umidità 73 %

Visibilità  10 Km

Il sole sorge alle ore 05:38

Il sole tramonta alle ore 20:26

Data e Ora Cielo e Fenomeni T °C DP °C Um. % Pres. hPa Vis. km Vento km/h
Oggi h: 04:50 sereno Sereno 21 16 73 1018 10 O 11.1
Oggi h: 03:50 sereno Sereno 20 16 77 1018 10 O 7.4
Oggi h: 02:20 sereno Sereno 21 17 77 1018 10 O/SO 9.3
Oggi h: 01:50 sereno Sereno 22 18 78 1018 10 N 5.5
Oggi h: 01:20 sereno Sereno 22 18 78 1018 10 SO 7.4
Oggi h: 00:50 sereno Sereno 23 19 78 1018 10 N 3.7
Oggi h: 00:20 sereno Sereno 24 19 73 1018 10 N 3.7
Ieri h: 23:50 poco_nuvoloso Poco Nuvoloso 25 20 73 1018 10 N/NE 7.4
Ieri h: 23:20 poco_nuvoloso Poco Nuvoloso 25 18 65 1018 10 NE 11.1
Ieri h: 22:50 poco_nuvoloso Poco Nuvoloso 25 19 69 1018 10 E/NE 13
Ieri h: 22:20 nuvoloso Nuvoloso 25 21 78 1018 10 E 13
Ieri h: 21:20 molto_nuvoloso Molto Nuvoloso 25 20 73 1018 10 E 11.1
Ieri h: 20:50 molto_nuvoloso Molto Nuvoloso 25 19 69 1018 10 E 13
Ieri h: 19:50 molto_nuvoloso Molto Nuvoloso 26 15 50 1017 10 E/NE 14.8
Ieri h: 19:20 molto_nuvoloso Molto Nuvoloso 26 16 54 1017 10 E 14.8
Ieri h: 18:50 molto_nuvoloso Molto Nuvoloso 26 18 61 1017 10 E 16.7
Ieri h: 18:20 molto_nuvoloso Molto Nuvoloso 27 17 54 1017 10 E 16.7
Ieri h: 17:50 molto_nuvoloso Molto Nuvoloso 27 19 61 1017 10 E 20.3
Ieri h: 17:20 molto_nuvoloso Molto Nuvoloso 27 19 61 1017 10 E/NE 22.2
Ieri h: 16:50 nuvoloso Nuvoloso 27 19 61 1017 10 E/NE 18.5
Ieri h: 16:20 nuvoloso Nuvoloso 27 18 57 1017 10 E 20.3
Ieri h: 15:50 nuvoloso Nuvoloso 28 18 54 1017 10 E 20.3
Ieri h: 15:20 poco_nuvoloso Poco Nuvoloso 29 19 54 1017 10 E 20.3
Ieri h: 14:50 poco_nuvoloso Poco Nuvoloso 28 18 54 1017 10 E 24
Ieri h: 14:20 sereno Sereno 29 17 48 1017 10 E/NE 25.9
Ieri h: 13:50 sereno Sereno 30 16 42 1017 10 E 24
Ieri h: 13:20 sereno Sereno 29 15 42 1017 10 E/NE 20.3
Ieri h: 12:50 sereno Sereno 29 16 45 1018 10 E/NE 20.3
Ieri h: 12:20 poco_nuvoloso Poco Nuvoloso 29 16 45 1018 10 E 18.5
Ieri h: 11:50 sereno Sereno 28 17 51 1018 10 E 16.7
Ieri h: 11:20 sereno Sereno 28 17 51 1018 10 E 18.5
Ieri h: 10:50 sereno Sereno 27 18 57 1017 10 E 16.7
Ieri h: 10:20 sereno Sereno 27 18 57 1017 10 E 16.7
Ieri h: 09:50 sereno Sereno 27 18 57 1017 10 E 14.8
Ieri h: 09:20 sereno Sereno 27 17 54 1017 10 E 13
Ieri h: 08:50 sereno Sereno 27 15 47 1017 10 E 11.1
Ieri h: 08:20 sereno Sereno 26 14 47 1017 10 N 3.7
Ieri h: 07:50 sereno Sereno 24 15 57 1017 10 N 5.5
Ieri h: 07:20 sereno Sereno 23 15 60 1017 10 O 7.4
Ieri h: 06:50 sereno Sereno 22 15 64 1016 10 O 11.1
Ieri h: 06:20 sereno Sereno 20 15 72 1016 10 O 7.4
Ieri h: 05:50 sereno Sereno 20 15 72 1016 10 O/SO 13